createdAt,value
2023-05-10T00:00:19.768Z,135.23
2023-05-10T00:01:19.788Z,136.11
2023-05-10T00:02:19.886Z,137.69
2023-05-10T00:03:20.404Z,136.87
2023-05-10T00:04:19.994Z,137.31
2023-05-10T00:05:20.003Z,136.77
2023-05-10T00:06:20.061Z,135.87
2023-05-10T00:07:20.129Z,136.63
2023-05-10T00:08:20.324Z,135.42
2023-05-10T00:09:20.185Z,136.35
2023-05-10T00:10:20.285Z,135.99
2023-05-10T00:11:22.890Z,135.57
2023-05-10T00:12:20.310Z,136.09
2023-05-10T00:13:20.364Z,135.20
2023-05-10T00:14:20.282Z,136.63
2023-05-10T00:15:20.296Z,136.10
2023-05-10T00:16:20.343Z,135.62
2023-05-10T00:17:20.276Z,136.08
2023-05-10T00:18:20.293Z,136.60
2023-05-10T00:19:20.228Z,134.71
2023-05-10T00:20:20.238Z,136.34
2023-05-10T00:21:20.218Z,136.08
2023-05-10T00:22:20.206Z,135.89
2023-05-10T00:23:20.349Z,136.34
2023-05-10T00:24:20.215Z,135.13
2023-05-10T00:25:20.199Z,136.12
2023-05-10T00:26:20.216Z,137.06
2023-05-10T00:27:20.228Z,134.42
2023-05-10T00:28:20.220Z,135.28
2023-05-10T00:29:20.174Z,133.75
2023-05-10T00:30:20.206Z,134.54
2023-05-10T00:31:20.169Z,136.64
2023-05-10T00:32:20.267Z,134.13
2023-05-10T00:33:20.199Z,135.40
2023-05-10T00:34:20.167Z,135.65
2023-05-10T00:35:20.153Z,133.73
2023-05-10T00:36:20.151Z,134.42
2023-05-10T00:37:20.159Z,135.62
2023-05-10T00:38:20.126Z,134.64
2023-05-10T00:39:20.130Z,134.37
2023-05-10T00:40:20.145Z,134.83
2023-05-10T00:41:20.118Z,135.90
2023-05-10T00:42:20.104Z,135.40
2023-05-10T00:43:20.083Z,134.25
2023-05-10T00:44:20.106Z,136.19
2023-05-10T00:45:20.123Z,135.58
2023-05-10T00:46:20.162Z,133.25
2023-05-10T00:47:20.109Z,135.27
2023-05-10T00:48:20.352Z,134.53
2023-05-10T00:49:20.073Z,134.23
2023-05-10T00:50:20.060Z,134.58
2023-05-10T00:51:20.038Z,133.67
2023-05-10T00:52:20.062Z,134.04
2023-05-10T00:53:20.367Z,133.30
2023-05-10T00:54:20.025Z,133.94
2023-05-10T00:55:20.075Z,133.59
2023-05-10T00:56:20.118Z,133.45
2023-05-10T00:57:20.186Z,132.88
2023-05-10T00:58:20.238Z,133.28
2023-05-10T00:59:20.288Z,134.90
2023-05-10T01:00:20.334Z,133.11
2023-05-10T01:01:20.391Z,133.92
2023-05-10T01:02:20.479Z,134.81
2023-05-10T01:03:20.633Z,135.48
2023-05-10T01:04:20.553Z,135.10
2023-05-10T01:05:20.753Z,134.29
2023-05-10T01:06:20.667Z,132.98
2023-05-10T01:07:20.683Z,135.63
2023-05-10T01:08:20.736Z,133.15
2023-05-10T01:09:20.790Z,134.19
2023-05-10T01:10:20.912Z,133.10
2023-05-10T01:11:20.940Z,135.48
2023-05-10T01:12:21.039Z,134.07
2023-05-10T01:13:21.098Z,133.41
2023-05-10T01:14:21.123Z,134.24
2023-05-10T01:15:21.162Z,132.88
2023-05-10T01:16:21.263Z,133.41
2023-05-10T01:17:21.314Z,135.46
2023-05-10T01:18:21.336Z,133.65
2023-05-10T01:19:21.378Z,133.21
2023-05-10T01:20:21.440Z,134.25
2023-05-10T01:21:21.494Z,133.84
2023-05-10T01:22:21.570Z,134.20
2023-05-10T01:23:21.882Z,134.36
2023-05-10T01:24:21.675Z,133.64
2023-05-10T01:25:21.716Z,131.65
2023-05-10T01:26:21.795Z,134.98
2023-05-10T01:27:21.834Z,134.31
2023-05-10T01:28:22.387Z,133.59
2023-05-10T01:29:21.967Z,135.11
2023-05-10T01:30:22.430Z,133.84
2023-05-10T01:31:22.092Z,134.44
2023-05-10T01:32:22.136Z,133.65
2023-05-10T01:33:22.178Z,134.06
2023-05-10T01:34:22.263Z,133.57
2023-05-10T01:35:22.309Z,132.00
2023-05-10T01:36:22.369Z,132.99
2023-05-10T01:37:22.412Z,132.95
2023-05-10T01:38:22.498Z,132.78
2023-05-10T01:39:22.912Z,135.28
2023-05-10T01:40:22.597Z,132.84
2023-05-10T01:41:22.656Z,132.03
2023-05-10T01:42:22.716Z,132.93
2023-05-10T01:43:22.782Z,132.52
2023-05-10T01:44:22.918Z,133.09
2023-05-10T01:45:22.889Z,132.86
2023-05-10T01:46:22.934Z,134.53
2023-05-10T01:47:23.021Z,132.68
2023-05-10T01:48:23.073Z,132.50
2023-05-10T01:49:23.116Z,133.61
2023-05-10T01:50:23.185Z,131.33
2023-05-10T01:51:23.227Z,132.93
2023-05-10T01:52:23.272Z,132.81
2023-05-10T01:53:23.331Z,131.71
2023-05-10T01:54:23.373Z,133.40
2023-05-10T01:55:23.455Z,132.32
2023-05-10T01:56:23.484Z,133.39
2023-05-10T01:57:23.588Z,133.17
2023-05-10T01:58:23.651Z,132.67
2023-05-10T01:59:23.897Z,131.87
2023-05-10T02:00:23.716Z,132.68
2023-05-10T02:01:23.799Z,131.88
2023-05-10T02:02:23.903Z,132.51
2023-05-10T02:03:23.935Z,132.82
2023-05-10T02:04:24.374Z,132.83
2023-05-10T02:05:24.015Z,131.97
2023-05-10T02:06:24.062Z,132.38
2023-05-10T02:07:24.158Z,131.48
2023-05-10T02:08:24.204Z,131.78
2023-05-10T02:09:24.450Z,131.40
2023-05-10T02:10:24.310Z,130.97
2023-05-10T02:11:24.389Z,131.74
2023-05-10T02:12:24.460Z,130.99
2023-05-10T02:13:24.605Z,134.19
2023-05-10T02:14:24.877Z,132.47
2023-05-10T02:15:24.635Z,132.20
2023-05-10T02:16:24.686Z,130.28
2023-05-10T02:17:24.796Z,131.00
2023-05-10T02:18:24.793Z,131.39
2023-05-10T02:19:24.891Z,130.86
2023-05-10T02:20:24.905Z,130.34
2023-05-10T02:21:24.974Z,131.44
2023-05-10T02:22:25.022Z,130.71
2023-05-10T02:23:25.083Z,132.96
2023-05-10T02:24:25.410Z,131.71
2023-05-10T02:25:25.198Z,131.65
2023-05-10T02:26:25.277Z,131.33
2023-05-10T02:27:25.346Z,130.74
2023-05-10T02:28:25.416Z,130.32
2023-05-10T02:29:25.449Z,132.04
2023-05-10T02:30:25.535Z,131.45
2023-05-10T02:31:25.581Z,131.17
2023-05-10T02:32:25.707Z,129.95
2023-05-10T02:33:25.694Z,130.58
2023-05-10T02:34:25.902Z,131.26
2023-05-10T02:35:25.814Z,130.93
2023-05-10T02:36:25.884Z,131.87
2023-05-10T02:37:25.907Z,132.69
2023-05-10T02:38:25.971Z,129.95
2023-05-10T02:39:26.062Z,131.41
2023-05-10T02:40:28.574Z,128.89
2023-05-10T02:41:26.110Z,130.29
2023-05-10T02:42:26.080Z,132.35
2023-05-10T02:43:26.098Z,129.48
2023-05-10T02:44:26.404Z,131.87
2023-05-10T02:45:26.045Z,131.51
2023-05-10T02:46:26.067Z,131.06
2023-05-10T02:47:26.043Z,129.97
2023-05-10T02:48:26.041Z,131.69
2023-05-10T02:49:26.445Z,129.90
2023-05-10T02:50:26.001Z,131.14
2023-05-10T02:51:26.016Z,130.63
2023-05-10T02:52:26.026Z,130.17
2023-05-10T02:53:26.044Z,132.22
2023-05-10T02:54:26.411Z,129.05
2023-05-10T02:55:26.009Z,129.50
2023-05-10T02:56:26.025Z,130.83
2023-05-10T02:57:26.019Z,130.81
2023-05-10T02:58:25.968Z,130.05
2023-05-10T02:59:25.959Z,129.89
2023-05-10T03:00:25.955Z,129.04
2023-05-10T03:01:25.996Z,130.04
2023-05-10T03:02:26.025Z,129.89
2023-05-10T03:03:25.950Z,129.85
2023-05-10T03:04:26.449Z,131.52
2023-05-10T03:05:25.924Z,130.70
2023-05-10T03:06:25.916Z,131.50
2023-05-10T03:07:25.892Z,130.13
2023-05-10T03:08:25.936Z,131.86
2023-05-10T03:09:25.918Z,131.00
2023-05-10T03:10:25.912Z,131.11
2023-05-10T03:11:25.911Z,129.79
2023-05-10T03:12:25.917Z,127.98
2023-05-10T03:13:25.928Z,130.38
2023-05-10T03:14:25.935Z,128.38
2023-05-10T03:15:25.856Z,130.22
2023-05-10T03:16:25.928Z,128.39
2023-05-10T03:17:25.935Z,131.39
2023-05-10T03:18:25.877Z,129.37
2023-05-10T03:19:26.436Z,128.66
2023-05-10T03:20:26.043Z,129.69
2023-05-10T03:21:26.100Z,129.66
2023-05-10T03:22:26.146Z,127.70
2023-05-10T03:23:26.233Z,127.01
2023-05-10T03:24:26.260Z,127.20
2023-05-10T03:25:26.339Z,128.89
2023-05-10T03:26:26.384Z,129.17
2023-05-10T03:27:26.449Z,127.97
2023-05-10T03:28:26.494Z,128.04
2023-05-10T03:29:26.935Z,129.73
2023-05-10T03:30:26.626Z,128.17
2023-05-10T03:31:26.716Z,127.67
2023-05-10T03:32:26.761Z,126.38
2023-05-10T03:33:26.756Z,129.20
2023-05-10T03:34:26.845Z,129.28
2023-05-10T03:35:26.893Z,128.74
2023-05-10T03:36:26.940Z,128.31
2023-05-10T03:37:27.021Z,130.03
2023-05-10T03:38:29.645Z,128.05
2023-05-10T03:39:27.060Z,131.65
2023-05-10T03:40:27.056Z,128.20
2023-05-10T03:41:27.034Z,128.93
2023-05-10T03:42:27.053Z,128.02
2023-05-10T03:43:27.027Z,127.85
2023-05-10T03:44:27.024Z,127.16
2023-05-10T03:45:27.050Z,127.84
2023-05-10T03:46:27.058Z,128.87
2023-05-10T03:47:27.098Z,129.01
2023-05-10T03:48:26.973Z,129.73
2023-05-10T03:49:27.449Z,128.64
2023-05-10T03:50:26.998Z,127.91
2023-05-10T03:51:26.989Z,126.31
2023-05-10T03:52:26.957Z,131.03
2023-05-10T03:53:26.952Z,128.24
2023-05-10T03:54:27.455Z,126.44
2023-05-10T03:55:26.957Z,127.41
2023-05-10T03:56:26.953Z,126.63
2023-05-10T03:57:26.942Z,129.58
2023-05-10T03:58:26.892Z,128.05
2023-05-10T03:59:26.924Z,127.31
2023-05-10T04:00:26.912Z,127.30
2023-05-10T04:01:26.916Z,128.03
2023-05-10T04:02:27.075Z,126.07
2023-05-10T04:03:26.964Z,128.67
2023-05-10T04:04:26.866Z,126.81
2023-05-10T04:05:26.883Z,129.10
2023-05-10T04:06:26.907Z,128.05
2023-05-10T04:07:26.836Z,127.26
2023-05-10T04:08:26.849Z,127.73
2023-05-10T04:09:26.867Z,127.11
2023-05-10T04:10:26.862Z,127.29
2023-05-10T04:11:26.841Z,128.67
2023-05-10T04:12:26.815Z,126.13
2023-05-10T04:13:26.933Z,128.18
2023-05-10T04:14:26.944Z,127.14
2023-05-10T04:15:27.014Z,127.81
2023-05-10T04:16:27.024Z,126.71
2023-05-10T04:17:27.155Z,126.00
2023-05-10T04:18:27.120Z,127.95
2023-05-10T04:19:27.221Z,128.72
2023-05-10T04:20:27.274Z,126.41
2023-05-10T04:21:27.315Z,127.34
2023-05-10T04:22:27.358Z,126.66
2023-05-10T04:23:27.431Z,128.14
2023-05-10T04:24:27.968Z,126.60
2023-05-10T04:25:27.568Z,128.60
2023-05-10T04:26:27.621Z,126.94
2023-05-10T04:27:27.655Z,125.92
2023-05-10T04:28:27.729Z,125.05
2023-05-10T04:29:27.784Z,126.32
2023-05-10T04:30:27.875Z,126.62
2023-05-10T04:31:28.020Z,126.78
2023-05-10T04:32:27.973Z,126.65
2023-05-10T04:33:28.033Z,124.20
2023-05-10T04:34:28.068Z,127.84
2023-05-10T04:35:28.103Z,126.40
2023-05-10T04:36:28.190Z,127.05
2023-05-10T04:37:28.236Z,124.93
2023-05-10T04:38:28.319Z,128.90
2023-05-10T04:39:28.349Z,123.12
2023-05-10T04:40:28.397Z,123.07
2023-05-10T04:41:28.449Z,125.18
2023-05-10T04:42:28.483Z,124.89
2023-05-10T04:43:28.544Z,123.71
2023-05-10T04:44:28.639Z,126.04
2023-05-10T04:45:28.667Z,125.94
2023-05-10T04:46:28.805Z,125.37
2023-05-10T04:47:28.813Z,125.11
2023-05-10T04:48:28.857Z,125.33
2023-05-10T04:49:28.989Z,126.09
2023-05-10T04:50:28.938Z,123.99
2023-05-10T04:51:29.022Z,124.27
2023-05-10T04:52:29.073Z,125.68
2023-05-10T04:53:29.140Z,124.52
2023-05-10T04:54:29.187Z,126.11
2023-05-10T04:55:29.298Z,124.55
2023-05-10T04:56:29.293Z,126.00
2023-05-10T04:57:29.361Z,124.41
2023-05-10T04:58:29.431Z,127.17
2023-05-10T04:59:29.489Z,125.93
2023-05-10T05:00:29.552Z,124.15
2023-05-10T05:01:29.606Z,127.16
2023-05-10T05:02:29.746Z,124.64
2023-05-10T05:03:29.721Z,125.41
2023-05-10T05:04:29.990Z,126.65
2023-05-10T05:05:29.798Z,125.09
2023-05-10T05:06:29.842Z,123.79
2023-05-10T05:07:29.909Z,125.06
2023-05-10T05:08:29.958Z,124.14
2023-05-10T05:09:30.006Z,122.93
2023-05-10T05:10:30.150Z,123.84
2023-05-10T05:11:30.105Z,122.19
2023-05-10T05:12:30.152Z,124.66
2023-05-10T05:13:30.426Z,124.25
2023-05-10T05:14:30.284Z,124.64
2023-05-10T05:15:30.325Z,124.68
2023-05-10T05:16:30.452Z,123.38
2023-05-10T05:17:30.439Z,123.53
2023-05-10T05:18:30.502Z,122.86
2023-05-10T05:19:30.538Z,123.32
2023-05-10T05:20:30.633Z,124.25
2023-05-10T05:21:30.650Z,123.89
2023-05-10T05:22:30.719Z,122.74
2023-05-10T05:23:30.769Z,122.26
2023-05-10T05:24:30.898Z,122.05
2023-05-10T05:25:30.918Z,122.54
2023-05-10T05:26:30.896Z,122.19
2023-05-10T05:27:30.982Z,123.49
2023-05-10T05:28:31.010Z,124.03
2023-05-10T05:29:31.114Z,122.28
2023-05-10T05:30:31.168Z,122.44
2023-05-10T05:31:31.229Z,121.31
2023-05-10T05:32:31.264Z,122.89
2023-05-10T05:33:31.311Z,122.59
2023-05-10T05:34:31.344Z,122.68
2023-05-10T05:35:31.421Z,122.88
2023-05-10T05:36:31.454Z,125.38
2023-05-10T05:37:31.501Z,123.70
2023-05-10T05:38:31.620Z,122.09
2023-05-10T05:39:31.639Z,123.96
2023-05-10T05:40:31.663Z,124.58
2023-05-10T05:41:31.737Z,122.48
2023-05-10T05:42:31.813Z,121.82
2023-05-10T05:43:31.835Z,122.26
2023-05-10T05:44:32.026Z,120.32
2023-05-10T05:45:32.003Z,122.30
2023-05-10T05:46:32.001Z,121.78
2023-05-10T05:47:32.071Z,126.73
2023-05-10T05:48:32.133Z,130.24
2023-05-10T05:49:32.508Z,138.42
2023-05-10T05:50:32.229Z,133.92
2023-05-10T05:51:32.314Z,133.90
2023-05-10T05:52:32.364Z,136.67
2023-05-10T05:53:32.413Z,142.31
2023-05-10T05:54:32.509Z,148.99
2023-05-10T05:55:32.536Z,151.18
2023-05-10T05:56:32.597Z,160.17
2023-05-10T05:57:32.640Z,167.25
2023-05-10T05:58:32.722Z,188.35
2023-05-10T05:59:33.031Z,194.98
2023-05-10T06:00:32.806Z,221.85
2023-05-10T06:01:32.866Z,228.82
2023-05-10T06:02:32.974Z,236.34
2023-05-10T06:03:32.980Z,246.93
2023-05-10T06:04:33.079Z,250.19
2023-05-10T06:05:33.051Z,256.49
2023-05-10T06:06:33.065Z,250.00
2023-05-10T06:07:33.109Z,255.04
2023-05-10T06:08:33.092Z,243.43
2023-05-10T06:09:33.142Z,249.79
2023-05-10T06:10:33.150Z,250.96
2023-05-10T06:11:33.160Z,249.67
2023-05-10T06:12:33.102Z,243.48
2023-05-10T06:13:33.350Z,237.51
2023-05-10T06:14:33.529Z,245.46
2023-05-10T06:15:33.121Z,243.77
2023-05-10T06:16:33.138Z,245.08
2023-05-10T06:17:33.179Z,250.00
2023-05-10T06:18:33.160Z,244.86
2023-05-10T06:19:33.178Z,245.39
2023-05-10T06:20:33.188Z,247.01
2023-05-10T06:21:33.202Z,250.00
2023-05-10T06:22:33.282Z,250.00
2023-05-10T06:23:33.312Z,246.89
2023-05-10T06:24:33.513Z,249.26
2023-05-10T06:25:33.552Z,245.99
2023-05-10T06:26:33.515Z,245.46
2023-05-10T06:27:33.644Z,250.23
2023-05-10T06:28:33.592Z,250.73
2023-05-10T06:29:34.041Z,248.15
2023-05-10T06:30:33.705Z,247.79
2023-05-10T06:31:34.873Z,248.31
2023-05-10T06:32:33.877Z,245.53
2023-05-10T06:33:33.830Z,244.11
2023-05-10T06:34:34.022Z,244.94
2023-05-10T06:35:33.921Z,243.82
2023-05-10T06:36:34.009Z,248.82
2023-05-10T06:37:34.032Z,246.97
2023-05-10T06:38:34.004Z,241.88
2023-05-10T06:39:34.063Z,244.54
2023-05-10T06:40:34.078Z,244.60
2023-05-10T06:41:34.083Z,245.78
2023-05-10T06:42:34.114Z,248.33
2023-05-10T06:43:34.151Z,250.00
2023-05-10T06:44:34.171Z,249.06
2023-05-10T06:45:34.167Z,248.44
2023-05-10T06:46:34.247Z,249.41
2023-05-10T06:47:35.849Z,248.92
2023-05-10T06:48:34.227Z,248.38
2023-05-10T06:49:34.219Z,246.81
2023-05-10T06:50:34.199Z,239.56
2023-05-10T06:51:34.208Z,241.83
2023-05-10T06:52:34.159Z,222.43
2023-05-10T06:53:34.160Z,187.31
2023-05-10T06:54:34.498Z,171.42
2023-05-10T06:55:34.158Z,165.73
2023-05-10T06:56:34.149Z,165.69
2023-05-10T06:57:34.162Z,173.74
2023-05-10T06:58:34.161Z,178.06
2023-05-10T06:59:34.265Z,176.92
2023-05-10T07:00:34.218Z,173.50
2023-05-10T07:01:34.127Z,166.51
2023-05-10T07:02:34.228Z,160.54
2023-05-10T07:03:34.085Z,158.34
2023-05-10T07:04:34.110Z,157.56
2023-05-10T07:05:34.173Z,154.79
2023-05-10T07:06:35.023Z,151.09
2023-05-10T07:07:34.068Z,158.73
2023-05-10T07:08:34.095Z,155.68
2023-05-10T07:09:34.051Z,153.25
2023-05-10T07:10:34.052Z,153.47
2023-05-10T07:11:34.071Z,150.81
2023-05-10T07:12:34.132Z,147.84
2023-05-10T07:13:34.085Z,143.48
2023-05-10T07:14:34.576Z,143.36
2023-05-10T07:15:34.023Z,142.27
2023-05-10T07:16:34.041Z,148.75
2023-05-10T07:17:34.051Z,152.71
2023-05-10T07:18:34.016Z,155.20
2023-05-10T07:19:33.996Z,158.63
2023-05-10T07:20:33.970Z,160.98
2023-05-10T07:21:34.034Z,163.09
2023-05-10T07:22:33.955Z,164.09
2023-05-10T07:23:33.981Z,165.92
2023-05-10T07:24:34.116Z,166.52
2023-05-10T07:25:33.942Z,174.88
2023-05-10T07:26:33.951Z,184.31
2023-05-10T07:27:33.905Z,181.98
2023-05-10T07:28:34.544Z,188.09
2023-05-10T07:29:34.032Z,191.56
2023-05-10T07:30:33.938Z,190.64
2023-05-10T07:31:33.915Z,191.86
2023-05-10T07:32:34.093Z,191.48
2023-05-10T07:33:33.947Z,194.78
2023-05-10T07:34:33.988Z,198.65
2023-05-10T07:35:34.049Z,198.90
2023-05-10T07:36:34.054Z,197.99
2023-05-10T07:37:34.070Z,198.52
2023-05-10T07:38:34.072Z,198.69
2023-05-10T07:39:34.138Z,199.63
2023-05-10T07:40:34.135Z,199.43
2023-05-10T07:41:35.820Z,201.49
2023-05-10T07:42:34.184Z,201.03
2023-05-10T07:43:34.197Z,203.40
2023-05-10T07:44:34.579Z,203.28
2023-05-10T07:45:34.304Z,205.54
2023-05-10T07:46:34.304Z,211.20
2023-05-10T07:47:34.334Z,207.33
2023-05-10T07:48:34.337Z,219.16
2023-05-10T07:49:34.307Z,220.22
2023-05-10T07:50:34.563Z,214.46
2023-05-10T07:51:34.314Z,211.44
2023-05-10T07:52:34.330Z,214.94
2023-05-10T07:53:34.337Z,216.68
2023-05-10T07:54:34.322Z,222.40
2023-05-10T07:55:34.563Z,223.10
2023-05-10T07:56:34.377Z,222.22
2023-05-10T07:57:34.469Z,223.90
2023-05-10T07:58:34.504Z,227.28
2023-05-10T07:59:34.551Z,235.13
2023-05-10T08:00:35.062Z,241.87
2023-05-10T08:01:34.702Z,242.08
2023-05-10T08:02:34.886Z,242.18
2023-05-10T08:03:34.895Z,243.67
2023-05-10T08:04:34.895Z,249.16
2023-05-10T08:05:35.769Z,250.00
2023-05-10T08:06:34.936Z,249.13
2023-05-10T08:07:34.971Z,250.25
2023-05-10T08:08:35.032Z,248.77
2023-05-10T08:09:35.029Z,249.87
2023-05-10T08:10:35.579Z,249.06
2023-05-10T08:11:35.446Z,249.85
2023-05-10T08:12:35.148Z,250.01
2023-05-10T08:13:35.229Z,247.25
2023-05-10T08:14:35.231Z,250.13
2023-05-10T08:15:35.570Z,249.50
2023-05-10T08:16:35.292Z,249.05
2023-05-10T08:17:35.335Z,248.47
2023-05-10T08:18:35.383Z,246.90
2023-05-10T08:19:35.571Z,247.89
2023-05-10T08:20:35.449Z,250.00
2023-05-10T08:21:35.450Z,249.73
2023-05-10T08:22:35.454Z,247.92
2023-05-10T08:23:35.504Z,248.43
2023-05-10T08:24:35.533Z,245.73
2023-05-10T08:25:35.591Z,243.30
2023-05-10T08:26:35.592Z,235.68
2023-05-10T08:27:35.648Z,233.09
2023-05-10T08:28:35.657Z,231.74
2023-05-10T08:29:48.873Z,231.51
2023-05-10T08:30:37.049Z,231.51
2023-05-10T08:31:35.677Z,229.96
2023-05-10T08:32:35.701Z,225.77
2023-05-10T08:33:35.628Z,230.70
2023-05-10T08:34:35.637Z,225.92
2023-05-10T08:35:35.657Z,227.32
2023-05-10T08:36:35.664Z,227.39
2023-05-10T08:37:35.623Z,228.14
2023-05-10T08:38:35.614Z,223.75
2023-05-10T08:39:35.611Z,219.46
2023-05-10T08:40:36.099Z,220.92
2023-05-10T08:41:35.590Z,219.53
2023-05-10T08:42:35.621Z,217.95
2023-05-10T08:43:35.549Z,210.76
2023-05-10T08:44:35.626Z,216.25
2023-05-10T08:45:35.559Z,209.10
2023-05-10T08:46:35.593Z,211.63
2023-05-10T08:47:35.547Z,211.39
2023-05-10T08:48:35.611Z,205.76
2023-05-10T08:49:35.612Z,207.90
2023-05-10T08:50:35.695Z,203.59
2023-05-10T08:51:35.736Z,201.27
2023-05-10T08:52:35.789Z,177.61
2023-05-10T08:53:35.833Z,164.73
2023-05-10T08:54:35.899Z,162.01
2023-05-10T08:55:36.023Z,158.61
2023-05-10T08:56:36.009Z,153.54
2023-05-10T08:57:36.024Z,150.35
2023-05-10T08:58:36.034Z,150.04
2023-05-10T08:59:36.032Z,158.07
2023-05-10T09:00:36.171Z,162.50
2023-05-10T09:01:36.011Z,162.51
2023-05-10T09:02:36.041Z,164.34
2023-05-10T09:03:36.049Z,164.10
2023-05-10T09:04:36.132Z,163.99
2023-05-10T09:05:36.078Z,166.54
2023-05-10T09:06:36.072Z,166.58
2023-05-10T09:07:36.451Z,167.32
2023-05-10T09:08:36.093Z,167.32
2023-05-10T09:09:36.108Z,165.80
2023-05-10T09:10:36.102Z,166.35
2023-05-10T09:11:36.160Z,166.52
2023-05-10T09:12:36.145Z,167.07
2023-05-10T09:13:36.287Z,166.09
2023-05-10T09:14:36.159Z,165.58
2023-05-10T09:15:36.600Z,166.13
2023-05-10T09:16:36.276Z,165.25
2023-05-10T09:17:36.265Z,167.00
2023-05-10T09:18:36.278Z,165.36
2023-05-10T09:19:36.310Z,165.74
2023-05-10T09:20:36.315Z,165.62
2023-05-10T09:21:36.363Z,165.72
2023-05-10T09:22:36.399Z,165.53
2023-05-10T09:23:36.495Z,165.63
2023-05-10T09:24:36.472Z,165.42
2023-05-10T09:25:36.546Z,165.24
2023-05-10T09:26:36.525Z,163.54
2023-05-10T09:27:36.560Z,163.86
2023-05-10T09:28:36.583Z,163.91
2023-05-10T09:29:36.605Z,162.76
2023-05-10T09:30:36.726Z,164.52
2023-05-10T09:31:36.693Z,163.76
2023-05-10T09:32:36.746Z,162.67
2023-05-10T09:33:36.786Z,161.82
2023-05-10T09:34:36.793Z,162.91
2023-05-10T09:35:36.836Z,162.86
2023-05-10T09:36:36.861Z,161.64
2023-05-10T09:37:36.914Z,161.84
2023-05-10T09:38:36.935Z,160.63
2023-05-10T09:39:36.990Z,161.06
2023-05-10T09:40:37.111Z,161.17
2023-05-10T09:41:37.075Z,160.44
2023-05-10T09:42:37.127Z,159.69
2023-05-10T09:43:37.159Z,160.65
2023-05-10T09:44:37.205Z,160.48
2023-05-10T09:45:38.993Z,159.30
2023-05-10T09:46:37.430Z,159.60
2023-05-10T09:47:37.384Z,158.80
2023-05-10T09:48:37.404Z,159.12
2023-05-10T09:49:37.446Z,159.14
2023-05-10T09:50:37.704Z,159.04
2023-05-10T09:51:37.576Z,158.04
2023-05-10T09:52:37.629Z,157.88
2023-05-10T09:53:37.670Z,156.17
2023-05-10T09:54:37.714Z,156.76
2023-05-10T09:55:38.128Z,155.69
2023-05-10T09:56:37.945Z,154.94
2023-05-10T09:57:37.893Z,154.64
2023-05-10T09:58:37.945Z,154.93
2023-05-10T09:59:38.015Z,154.40
2023-05-10T10:00:38.118Z,155.31
2023-05-10T10:01:38.116Z,153.92
2023-05-10T10:02:38.278Z,153.98
2023-05-10T10:03:38.273Z,154.05
2023-05-10T10:04:38.314Z,152.95
2023-05-10T10:05:38.372Z,154.04
2023-05-10T10:06:39.386Z,154.11
2023-05-10T10:07:38.363Z,153.86
2023-05-10T10:08:38.365Z,153.28
2023-05-10T10:09:38.345Z,152.39
2023-05-10T10:10:38.395Z,151.26
2023-05-10T10:11:38.394Z,151.72
2023-05-10T10:12:38.326Z,150.30
2023-05-10T10:13:38.330Z,150.31
2023-05-10T10:14:38.343Z,150.10
2023-05-10T10:15:38.681Z,150.04
2023-05-10T10:16:45.800Z,149.54
2023-05-10T10:17:39.474Z,149.63
2023-05-10T10:18:38.472Z,149.70
2023-05-10T10:19:38.648Z,148.69
2023-05-10T10:20:38.625Z,149.38
2023-05-10T10:21:38.413Z,149.24
2023-05-10T10:22:38.407Z,148.74
2023-05-10T10:23:38.402Z,149.25
2023-05-10T10:24:38.369Z,148.33
2023-05-10T10:25:38.630Z,148.63
2023-05-10T10:26:38.384Z,148.47
2023-05-10T10:27:38.397Z,147.63
2023-05-10T10:28:38.445Z,147.52
2023-05-10T10:29:38.464Z,146.92
2023-05-10T10:30:38.671Z,145.99
2023-05-10T10:31:38.494Z,145.85
2023-05-10T10:32:38.505Z,145.65
2023-05-10T10:33:38.489Z,144.98
2023-05-10T10:34:38.476Z,146.11
2023-05-10T10:35:38.660Z,144.22
2023-05-10T10:36:38.476Z,144.94
2023-05-10T10:37:38.520Z,143.98
2023-05-10T10:38:38.515Z,143.05
2023-05-10T10:39:38.517Z,143.70
2023-05-10T10:40:38.643Z,143.20
2023-05-10T10:41:38.488Z,142.62
2023-05-10T10:42:38.503Z,142.25
2023-05-10T10:43:38.528Z,141.62
2023-05-10T10:45:57.255Z,25.00
2023-05-10T10:46:57.260Z,25.00
2023-05-10T10:47:57.243Z,25.00
2023-05-10T10:48:57.253Z,25.00
2023-05-10T10:49:57.237Z,25.00
2023-05-10T10:50:57.459Z,28.12
2023-05-10T10:51:57.194Z,26.32
2023-05-10T10:52:57.268Z,25.00
2023-05-10T10:53:57.172Z,25.68
2023-05-10T10:54:57.193Z,26.97
2023-05-10T10:55:57.191Z,25.56
2023-05-10T10:56:57.195Z,27.01
2023-05-10T10:57:57.154Z,28.34
2023-05-10T10:58:57.173Z,27.00
2023-05-10T10:59:57.146Z,25.00
2023-05-10T11:00:57.488Z,26.61
2023-05-10T11:01:57.129Z,25.13
2023-05-10T11:02:57.184Z,27.45
2023-05-10T11:03:57.159Z,25.00
2023-05-10T11:04:57.114Z,29.10
2023-05-10T11:05:57.462Z,28.99
2023-05-10T11:06:57.106Z,27.79
2023-05-10T11:07:57.112Z,26.60
2023-05-10T11:08:57.073Z,25.90
2023-05-10T11:09:57.115Z,27.71
2023-05-10T11:10:57.452Z,25.36
2023-05-10T11:11:57.082Z,25.00
2023-05-10T11:12:57.067Z,27.66
2023-05-10T11:13:57.086Z,28.06
2023-05-10T11:14:57.981Z,28.71
2023-05-10T11:15:57.471Z,29.62
2023-05-10T11:16:57.040Z,27.41
2023-05-10T11:17:57.062Z,27.15
2023-05-10T11:18:57.086Z,26.45
2023-05-10T11:19:57.009Z,25.01
2023-05-10T11:20:57.473Z,27.25
2023-05-10T11:21:56.997Z,27.43
2023-05-10T11:22:57.010Z,31.15
2023-05-10T11:23:57.074Z,27.52
2023-05-10T11:24:56.975Z,25.00
2023-05-10T11:25:57.473Z,26.06
2023-05-10T11:26:56.957Z,28.68
2023-05-10T11:27:56.930Z,29.57
2023-05-10T11:28:56.939Z,25.29
2023-05-10T11:29:56.904Z,25.58
2023-05-10T11:30:56.978Z,26.29
2023-05-10T11:31:56.944Z,27.66
2023-05-10T11:32:56.909Z,25.32
2023-05-10T11:33:56.907Z,26.43
2023-05-10T11:34:56.892Z,31.04
2023-05-10T11:35:56.959Z,32.21
2023-05-10T11:36:56.950Z,27.84
2023-05-10T11:37:56.948Z,26.33
2023-05-10T11:38:56.917Z,28.04
2023-05-10T11:39:56.896Z,26.85
2023-05-10T11:40:56.981Z,27.33
2023-05-10T11:41:56.905Z,26.96
2023-05-10T11:42:56.857Z,26.32
2023-05-10T11:43:56.849Z,25.97
2023-05-10T11:44:56.826Z,25.25
2023-05-10T11:45:56.828Z,27.04
2023-05-10T11:46:56.853Z,26.72
2023-05-10T11:47:56.898Z,26.85
2023-05-10T11:48:56.831Z,27.40
2023-05-10T11:49:56.868Z,28.64
2023-05-10T11:50:56.995Z,25.70
2023-05-10T11:51:56.908Z,26.91
2023-05-10T11:52:56.916Z,27.32
2023-05-10T11:53:56.937Z,31.18
2023-05-10T11:54:56.947Z,30.78
2023-05-10T11:55:56.901Z,26.74
2023-05-10T11:56:56.971Z,28.19
2023-05-10T11:57:56.909Z,28.76
2023-05-10T11:58:56.914Z,28.13
2023-05-10T11:59:56.895Z,28.59
2023-05-10T12:00:56.898Z,25.89
2023-05-10T12:01:56.924Z,28.51
2023-05-10T12:02:57.092Z,28.62
2023-05-10T12:03:57.044Z,32.04
2023-05-10T12:04:56.932Z,29.00
2023-05-10T12:05:56.904Z,27.81
2023-05-10T12:06:57.012Z,28.77
2023-05-10T12:07:56.917Z,27.13
2023-05-10T12:08:56.927Z,28.64
2023-05-10T12:09:56.873Z,28.67
2023-05-10T12:10:56.892Z,26.70
2023-05-10T12:11:56.880Z,28.56
2023-05-10T12:12:56.869Z,28.20
2023-05-10T12:13:56.918Z,26.91
2023-05-10T12:14:56.866Z,26.82
2023-05-10T12:15:56.878Z,25.84
2023-05-10T12:16:56.928Z,26.26
2023-05-10T12:17:56.849Z,26.19
2023-05-10T12:18:57.013Z,25.81
2023-05-10T12:19:56.841Z,27.94
2023-05-10T12:20:56.849Z,27.96
2023-05-10T12:21:56.980Z,28.93
2023-05-10T12:22:58.321Z,27.96
2023-05-10T12:23:56.821Z,28.86
2023-05-10T12:24:56.834Z,29.95
2023-05-10T12:25:56.839Z,27.33
2023-05-10T12:26:56.788Z,28.50
2023-05-10T12:27:56.808Z,27.43
2023-05-10T12:28:56.779Z,25.47
2023-05-10T12:29:56.769Z,27.78
2023-05-10T12:30:56.772Z,25.47
2023-05-10T12:31:56.853Z,27.23
2023-05-10T12:32:56.835Z,25.97